Time;durP1;ratioP1;P1;durP2;ratioP2;P2;SDS_P1;SDS_P2;PMS_P1;PMS_P2;Temp;Humidity;BMP_temperature;BMP_pressure;BME280_temperature;BME280_humidity;BME280_pressure;Samples;Min_cycle;Max_cycle;Signal;HPM_P1;HPM_P2
2022/07/26 00:00:00;;;;;;;8.57;5.72;;;;;;;;;;5062778;28;20040;-83
2022/07/26 00:02:46;;;;;;;7.28;5.63;;;;;;;;;;5056189;28;20474;-83
2022/07/26 00:05:31;;;;;;;9.32;5.00;;;;;;;;;;5040894;28;20041;-81
2022/07/26 00:08:17;;;;;;;9.35;5.13;;;;;;;;;;5062757;28;20049;-82
2022/07/26 00:11:02;;;;;;;7.78;5.18;;;;;;;;;;5062365;28;20053;-81
2022/07/26 00:13:48;;;;;;;6.63;5.07;;;;;;;;;;5056085;28;20382;-81
2022/07/26 00:16:34;;;;;;;8.18;5.68;;;;;;;;;;5062580;28;20045;-82
2022/07/26 00:19:20;;;;;;;6.78;5.00;;;;;;;;;;5074788;28;20053;-81
2022/07/26 00:25:09;;;;;;;7.57;5.18;;;;;;;;;;5055365;28;20041;-80
2022/07/26 00:27:55;;;;;;;6.70;5.03;;;;;;;;;;5062312;28;20048;-80
2022/07/26 00:30:40;;;;;;;7.40;5.18;;;;;;;;;;5055494;28;20045;-80
2022/07/26 00:33:26;;;;;;;8.50;5.20;;;;;;;;;;5055232;28;20044;-83
2022/07/26 00:36:11;;;;;;;5.47;4.80;;;;;;;;;;5062526;28;20052;-82
2022/07/26 00:38:57;;;;;;;6.78;5.13;;;;;;;;;;5054980;28;20045;-82
2022/07/26 00:41:42;;;;;;;6.47;5.00;;;;;;;;;;5061832;28;20486;-82
2022/07/26 00:44:39;;;;;;;9.32;5.43;;;;;;;;;;5039892;28;20045;-82
2022/07/26 00:47:25;;;;;;;6.30;5.10;;;;;;;;;;5061540;28;20049;-80
2022/07/26 00:50:14;;;;;;;5.70;5.10;;;;;;;;;;5054979;28;20049;-81
2022/07/26 00:52:59;;;;;;;6.82;4.90;;;;;;;;;;5054905;28;20045;-83
2022/07/26 00:55:45;;;;;;;7.45;5.63;;;;;;;;;;5055473;28;20049;-84
2022/07/26 00:58:30;;;;;;;7.28;5.32;;;;;;;;;;5054468;28;20494;-83
2022/07/26 01:01:16;;;;;;;7.93;5.25;;;;;;;;;;5061424;28;20390;-81
2022/07/26 01:04:01;;;;;;;9.10;5.07;;;;;;;;;;5054868;28;20045;-83
2022/07/26 01:06:50;;;;;;;7.45;5.20;;;;;;;;;;5054514;28;20041;-80
2022/07/26 01:09:37;;;;;;;7.15;5.40;;;;;;;;;;5055424;28;20037;-82
2022/07/26 01:12:22;;;;;;;5.85;5.20;;;;;;;;;;5056190;28;20053;-81
2022/07/26 01:15:10;;;;;;;7.65;5.20;;;;;;;;;;5054999;28;20044;-80
2022/07/26 01:17:55;;;;;;;6.00;4.95;;;;;;;;;;5061323;28;20045;-84
2022/07/26 01:20:43;;;;;;;9.95;5.50;;;;;;;;;;5054241;28;20049;-83
2022/07/26 01:23:30;;;;;;;6.22;5.03;;;;;;;;;;5054503;28;20041;-83
2022/07/26 01:26:15;;;;;;;7.38;5.68;;;;;;;;;;5054604;28;20041;-83
2022/07/26 01:29:00;;;;;;;6.00;5.40;;;;;;;;;;5055103;28;20057;-85
2022/07/26 01:31:46;;;;;;;8.77;5.88;;;;;;;;;;5055373;28;20045;-83
2022/07/26 01:34:31;;;;;;;6.28;5.30;;;;;;;;;;5040104;28;20048;-84
2022/07/26 01:37:17;;;;;;;9.73;5.90;;;;;;;;;;5054277;28;20498;-83
2022/07/26 01:40:04;;;;;;;7.13;5.00;;;;;;;;;;5054061;28;20049;-83
2022/07/26 01:42:49;;;;;;;6.75;5.57;;;;;;;;;;5053795;28;20049;-82
2022/07/26 01:45:35;;;;;;;6.45;5.45;;;;;;;;;;5054214;28;20041;-87
2022/07/26 01:48:20;;;;;;;8.02;5.50;;;;;;;;;;5053728;28;20045;-83
2022/07/26 01:51:06;;;;;;;7.50;5.38;;;;;;;;;;5053860;28;20037;-86
2022/07/26 01:53:52;;;;;;;7.68;5.80;;;;;;;;;;5053756;28;20045;-83
2022/07/26 01:56:37;;;;;;;6.97;5.25;;;;;;;;;;5054077;28;20493;-85
2022/07/26 01:59:23;;;;;;;7.25;5.68;;;;;;;;;;5053751;28;20048;-84
2022/07/26 02:02:08;;;;;;;7.88;6.00;;;;;;;;;;5051553;28;20045;-83
2022/07/26 02:04:57;;;;;;;7.38;5.43;;;;;;;;;;5053872;28;20045;-83
2022/07/26 02:07:42;;;;;;;7.30;5.68;;;;;;;;;;5054137;28;20402;-86
2022/07/26 02:11:13;;;;;;;8.65;6.15;;;;;;;;;;5053713;28;20041;-86
2022/07/26 02:13:35;;;;;;;7.50;6.07;;;;;;;;;;5050874;28;20041;-87
2022/07/26 02:16:21;;;;;;;9.63;5.72;;;;;;;;;;5053769;28;20048;-85
2022/07/26 02:19:06;;;;;;;9.38;6.22;;;;;;;;;;5038578;28;20041;-82
2022/07/26 02:21:51;;;;;;;6.90;6.18;;;;;;;;;;5053595;28;20049;-84
2022/07/26 02:24:37;;;;;;;6.97;5.88;;;;;;;;;;5053688;28;20401;-85
2022/07/26 02:27:23;;;;;;;7.32;6.15;;;;;;;;;;5053741;28;20045;-83
2022/07/26 02:30:09;;;;;;;6.43;5.82;;;;;;;;;;5053925;28;20041;-83
2022/07/26 02:32:54;;;;;;;7.03;5.68;;;;;;;;;;5066787;28;20069;-82
2022/07/26 02:35:40;;;;;;;9.68;6.45;;;;;;;;;;5073072;28;20040;-85
2022/07/26 02:38:25;;;;;;;9.95;6.47;;;;;;;;;;5059400;28;20478;-84
2022/07/26 02:41:10;;;;;;;9.20;5.70;;;;;;;;;;5068874;28;20041;-84
2022/07/26 02:43:57;;;;;;;7.18;6.28;;;;;;;;;;5071532;28;20045;-82
2022/07/26 02:46:42;;;;;;;8.13;6.07;;;;;;;;;;5053796;28;20487;-83
2022/07/26 02:49:27;;;;;;;9.68;6.20;;;;;;;;;;5052901;28;20053;-82
2022/07/26 02:52:13;;;;;;;9.90;6.90;;;;;;;;;;5053126;28;20045;-83
2022/07/26 02:54:58;;;;;;;7.07;5.80;;;;;;;;;;5054812;28;20398;-82
2022/07/26 02:57:44;;;;;;;10.57;6.10;;;;;;;;;;5053232;28;20410;-83
2022/07/26 03:00:31;;;;;;;7.78;6.45;;;;;;;;;;5054231;28;20037;-83
2022/07/26 03:03:16;;;;;;;12.10;6.60;;;;;;;;;;5057351;28;20045;-83
2022/07/26 03:06:03;;;;;;;7.93;6.80;;;;;;;;;;5056556;28;20033;-82
2022/07/26 03:08:49;;;;;;;13.50;7.00;;;;;;;;;;5056661;28;20041;-83
2022/07/26 03:11:34;;;;;;;11.13;6.88;;;;;;;;;;5056714;28;20041;-82
2022/07/26 03:14:19;;;;;;;11.13;7.35;;;;;;;;;;5063474;28;20053;-86
2022/07/26 03:17:05;;;;;;;10.73;6.93;;;;;;;;;;5056547;28;20049;-83
2022/07/26 03:19:51;;;;;;;9.65;7.05;;;;;;;;;;5048237;28;20045;-84
2022/07/26 03:22:37;;;;;;;8.05;6.78;;;;;;;;;;5056506;28;20045;-84
2022/07/26 03:25:22;;;;;;;11.27;7.47;;;;;;;;;;5056253;28;20041;-85
2022/07/26 03:28:07;;;;;;;8.90;7.35;;;;;;;;;;5056443;28;20049;-83
2022/07/26 03:30:53;;;;;;;10.80;7.32;;;;;;;;;;5056657;28;20045;-83
2022/07/26 03:33:39;;;;;;;14.45;6.95;;;;;;;;;;5056240;28;20045;-84
2022/07/26 03:36:24;;;;;;;14.80;7.60;;;;;;;;;;5056405;28;20045;-85
2022/07/26 03:39:10;;;;;;;11.32;7.20;;;;;;;;;;5056282;28;20487;-82
2022/07/26 03:41:55;;;;;;;9.60;7.43;;;;;;;;;;5056188;28;20036;-82
2022/07/26 03:44:41;;;;;;;13.65;7.80;;;;;;;;;;5056298;28;20041;-84
2022/07/26 03:47:27;;;;;;;12.10;7.22;;;;;;;;;;5056388;28;20485;-82
2022/07/26 03:50:12;;;;;;;12.15;7.40;;;;;;;;;;5056457;28;20398;-83
2022/07/26 03:52:58;;;;;;;12.32;7.90;;;;;;;;;;5055949;28;20045;-83
2022/07/26 03:58:49;;;;;;;14.13;7.88;;;;;;;;;;5025614;28;20045;-83
2022/07/26 04:01:34;;;;;;;11.13;8.10;;;;;;;;;;5056281;28;20474;-84
2022/07/26 04:04:20;;;;;;;12.75;8.05;;;;;;;;;;5055953;28;20041;-82
2022/07/26 04:07:06;;;;;;;13.90;8.90;;;;;;;;;;5063445;28;20045;-82
2022/07/26 04:09:51;;;;;;;17.95;9.27;;;;;;;;;;5057880;28;20044;-85
2022/07/26 04:12:37;;;;;;;19.20;9.40;;;;;;;;;;5057463;28;20048;-83
2022/07/26 04:15:23;;;;;;;16.92;9.13;;;;;;;;;;5056536;28;20386;-85
2022/07/26 04:18:08;;;;;;;14.18;8.30;;;;;;;;;;5055563;28;20049;-85
2022/07/26 04:20:55;;;;;;;12.65;8.55;;;;;;;;;;5055582;28;20048;-86
2022/07/26 04:23:40;;;;;;;16.50;8.32;;;;;;;;;;5055482;28;20418;-85
2022/07/26 04:26:27;;;;;;;19.13;8.57;;;;;;;;;;5040467;28;20482;-82
2022/07/26 04:29:14;;;;;;;16.00;7.93;;;;;;;;;;5055524;28;20398;-84
2022/07/26 04:31:59;;;;;;;22.20;8.43;;;;;;;;;;5055564;28;20398;-83
2022/07/26 04:34:45;;;;;;;18.75;7.88;;;;;;;;;;5056285;28;20052;-82
2022/07/26 04:37:37;;;;;;;16.48;8.00;;;;;;;;;;5058286;28;20037;-81
2022/07/26 04:40:24;;;;;;;11.88;8.05;;;;;;;;;;5032852;28;20053;-82
2022/07/26 04:43:10;;;;;;;13.80;8.30;;;;;;;;;;5040346;28;20041;-83
2022/07/26 04:45:56;;;;;;;13.15;8.38;;;;;;;;;;5047288;28;20053;-83
2022/07/26 04:48:41;;;;;;;14.38;8.57;;;;;;;;;;5078090;28;20045;-81
2022/07/26 04:51:27;;;;;;;13.27;8.57;;;;;;;;;;5068412;28;20041;-83
2022/07/26 04:54:14;;;;;;;14.57;9.38;;;;;;;;;;5047326;28;20041;-83
2022/07/26 04:56:59;;;;;;;16.33;8.23;;;;;;;;;;5039686;28;20104;-83
2022/07/26 04:59:45;;;;;;;14.68;8.82;;;;;;;;;;5041894;28;20049;-83
2022/07/26 05:02:30;;;;;;;21.05;9.15;;;;;;;;;;5054772;28;20045;-83
2022/07/26 05:05:16;;;;;;;17.80;10.15;;;;;;;;;;5054803;28;20394;-83
2022/07/26 05:08:02;;;;;;;25.50;10.90;;;;;;;;;;5040200;28;20041;-83
2022/07/26 05:10:47;;;;;;;19.23;10.20;;;;;;;;;;5061528;28;20041;-83
2022/07/26 05:13:33;;;;;;;22.05;9.70;;;;;;;;;;5055066;28;20041;-82
2022/07/26 05:16:18;;;;;;;18.42;10.23;;;;;;;;;;5059555;28;20052;-82
2022/07/26 05:19:10;;;;;;;14.48;9.68;;;;;;;;;;5060962;28;20040;-82
2022/07/26 05:21:56;;;;;;;17.52;9.13;;;;;;;;;;5054551;28;20482;-81
2022/07/26 05:24:42;;;;;;;14.00;9.35;;;;;;;;;;5065166;28;20041;-82
2022/07/26 05:27:28;;;;;;;15.52;9.25;;;;;;;;;;5058504;28;20049;-81
2022/07/26 05:30:13;;;;;;;19.55;9.23;;;;;;;;;;5055237;28;20044;-77
2022/07/26 05:32:59;;;;;;;18.25;9.70;;;;;;;;;;5066591;28;20048;-79
2022/07/26 05:35:47;;;;;;;17.25;9.52;;;;;;;;;;5061520;28;20426;-81
2022/07/26 05:38:37;;;;;;;17.67;8.68;;;;;;;;;;5069227;28;20056;-79
2022/07/26 05:41:23;;;;;;;24.02;9.48;;;;;;;;;;5062407;28;20036;-81
2022/07/26 05:44:08;;;;;;;12.23;8.18;;;;;;;;;;5045297;28;20049;-79
2022/07/26 05:46:54;;;;;;;22.73;9.57;;;;;;;;;;5061872;28;20045;-81
2022/07/26 05:49:40;;;;;;;21.42;8.55;;;;;;;;;;5064248;28;20049;-81
2022/07/26 05:52:26;;;;;;;17.13;8.75;;;;;;;;;;5028516;28;20033;-81
2022/07/26 05:55:15;;;;;;;24.15;8.40;;;;;;;;;;5043338;28;20044;-82
2022/07/26 05:58:01;;;;;;;21.58;8.20;;;;;;;;;;5058505;28;20049;-81
2022/07/26 06:00:47;;;;;;;15.77;7.80;;;;;;;;;;5054987;28;20406;-82
2022/07/26 06:03:32;;;;;;;15.52;8.48;;;;;;;;;;5059893;28;20057;-83
2022/07/26 06:06:18;;;;;;;16.73;8.00;;;;;;;;;;5053972;28;20053;-82
2022/07/26 06:09:03;;;;;;;13.75;7.63;;;;;;;;;;5052955;28;20048;-82
2022/07/26 06:11:49;;;;;;;15.13;8.45;;;;;;;;;;5038550;28;20487;-82
2022/07/26 06:14:35;;;;;;;10.27;7.68;;;;;;;;;;5053478;28;20048;-82
2022/07/26 06:17:20;;;;;;;16.83;7.90;;;;;;;;;;5052896;28;20049;-81
2022/07/26 06:20:06;;;;;;;13.93;7.28;;;;;;;;;;5038584;28;20394;-81
2022/07/26 06:22:51;;;;;;;11.43;7.47;;;;;;;;;;5053670;28;20041;-81
2022/07/26 06:25:37;;;;;;;17.42;8.50;;;;;;;;;;5053788;28;20048;-81
2022/07/26 06:28:23;;;;;;;12.57;8.25;;;;;;;;;;5053577;28;20052;-81
2022/07/26 06:31:08;;;;;;;12.68;8.70;;;;;;;;;;5059531;28;20052;-81
2022/07/26 06:33:54;;;;;;;24.98;8.25;;;;;;;;;;5053304;28;20045;-82
2022/07/26 06:36:39;;;;;;;19.48;7.82;;;;;;;;;;5056399;28;20486;-81
2022/07/26 06:39:25;;;;;;;11.25;7.88;;;;;;;;;;5057233;28;20053;-81
2022/07/26 06:42:10;;;;;;;13.60;8.13;;;;;;;;;;5057457;28;20044;-81
2022/07/26 06:44:56;;;;;;;16.10;7.95;;;;;;;;;;5056296;28;20053;-81
2022/07/26 06:47:41;;;;;;;20.95;7.75;;;;;;;;;;5057042;28;20053;-81
2022/07/26 06:50:27;;;;;;;11.57;7.68;;;;;;;;;;5056893;28;20478;-83
2022/07/26 06:53:13;;;;;;;12.07;6.95;;;;;;;;;;5056576;28;20402;-83
2022/07/26 06:55:58;;;;;;;12.05;7.57;;;;;;;;;;5056738;28;20048;-82
2022/07/26 06:58:44;;;;;;;15.65;7.20;;;;;;;;;;5063541;28;20049;-82
2022/07/26 07:01:30;;;;;;;18.55;7.10;;;;;;;;;;5056979;28;20040;-82
2022/07/26 07:04:16;;;;;;;12.07;7.53;;;;;;;;;;5064157;28;20037;-80
2022/07/26 07:07:01;;;;;;;11.90;8.05;;;;;;;;;;5083229;28;20041;-82
2022/07/26 07:09:46;;;;;;;12.60;6.80;;;;;;;;;;5056991;28;20041;-81
2022/07/26 07:12:32;;;;;;;12.18;6.53;;;;;;;;;;5056260;28;20045;-82
2022/07/26 07:15:17;;;;;;;9.57;6.68;;;;;;;;;;5063625;28;20509;-82
2022/07/26 07:18:03;;;;;;;10.90;8.68;;;;;;;;;;5063382;28;20049;-82
2022/07/26 07:20:48;;;;;;;13.68;7.03;;;;;;;;;;5056228;28;20045;-78
2022/07/26 07:23:34;;;;;;;11.48;7.57;;;;;;;;;;5063308;28;20052;-76
2022/07/26 07:26:20;;;;;;;10.93;8.82;;;;;;;;;;5056233;28;20049;-77
2022/07/26 07:29:05;;;;;;;27.40;19.02;;;;;;;;;;5063030;28;20052;-77
2022/07/26 07:31:51;;;;;;;10.98;7.50;;;;;;;;;;5056415;28;20049;-77
2022/07/26 07:34:36;;;;;;;11.05;6.88;;;;;;;;;;5056175;28;20041;-76
2022/07/26 07:37:22;;;;;;;9.18;6.85;;;;;;;;;;5055402;28;20049;-79
2022/07/26 07:40:08;;;;;;;9.00;6.55;;;;;;;;;;5062671;28;20049;-77
2022/07/26 07:42:55;;;;;;;14.27;6.43;;;;;;;;;;5056113;28;20045;-79
2022/07/26 07:45:40;;;;;;;11.07;6.82;;;;;;;;;;5055817;28;20045;-80
2022/07/26 07:48:25;;;;;;;14.43;6.82;;;;;;;;;;5055017;28;20053;-78
2022/07/26 07:51:11;;;;;;;13.95;6.82;;;;;;;;;;5055940;28;20052;-78
2022/07/26 07:53:56;;;;;;;17.65;6.70;;;;;;;;;;5055854;28;20486;-79
2022/07/26 07:56:43;;;;;;;11.93;6.47;;;;;;;;;;5055801;28;20041;-79
2022/07/26 07:59:28;;;;;;;12.52;6.68;;;;;;;;;;5055651;28;20378;-80
2022/07/26 08:02:14;;;;;;;8.48;7.07;;;;;;;;;;5062498;28;20049;-80
2022/07/26 08:04:59;;;;;;;7.32;5.93;;;;;;;;;;5062461;28;20044;-79
2022/07/26 08:07:44;;;;;;;6.30;5.70;;;;;;;;;;5055290;28;20041;-78
2022/07/26 08:10:30;;;;;;;7.82;5.65;;;;;;;;;;5061479;28;20053;-78
2022/07/26 08:13:16;;;;;;;8.15;5.70;;;;;;;;;;5054915;28;20053;-77
2022/07/26 08:16:01;;;;;;;5.93;5.32;;;;;;;;;;5055344;28;20045;-79
2022/07/26 08:18:47;;;;;;;10.27;5.93;;;;;;;;;;5055541;28;20037;-78
2022/07/26 08:21:32;;;;;;;6.93;5.53;;;;;;;;;;5055680;28;20057;-78
2022/07/26 08:24:18;;;;;;;7.60;5.88;;;;;;;;;;5062201;28;20037;-78
2022/07/26 08:27:04;;;;;;;7.57;6.05;;;;;;;;;;5055786;28;20041;-78
2022/07/26 08:29:49;;;;;;;8.35;5.57;;;;;;;;;;5055123;28;20390;-79
2022/07/26 08:32:35;;;;;;;10.65;5.63;;;;;;;;;;5055172;28;20045;-78
2022/07/26 08:35:20;;;;;;;9.27;5.65;;;;;;;;;;5055030;28;20041;-79
2022/07/26 08:38:06;;;;;;;8.85;5.40;;;;;;;;;;5054475;28;20045;-77
2022/07/26 08:40:53;;;;;;;8.38;5.95;;;;;;;;;;5053897;28;20045;-80
2022/07/26 08:43:38;;;;;;;11.50;6.18;;;;;;;;;;5057580;28;20037;-79
2022/07/26 08:46:24;;;;;;;12.57;5.72;;;;;;;;;;5060585;28;20040;-79
2022/07/26 08:49:11;;;;;;;6.80;5.93;;;;;;;;;;5054131;28;20057;-78
2022/07/26 08:51:58;;;;;;;7.38;6.00;;;;;;;;;;5054693;28;20056;-77
2022/07/26 08:54:45;;;;;;;9.65;5.45;;;;;;;;;;5053983;28;20045;-78
2022/07/26 08:57:33;;;;;;;6.97;5.80;;;;;;;;;;5053229;28;20394;-76
2022/07/26 09:00:28;;;;;;;6.13;5.50;;;;;;;;;;5053948;28;20049;-77
2022/07/26 09:03:24;;;;;;;10.88;6.03;;;;;;;;;;5060590;28;20390;-77
2022/07/26 09:06:21;;;;;;;8.80;5.78;;;;;;;;;;5054444;28;20049;-77
2022/07/26 09:09:11;;;;;;;10.50;5.90;;;;;;;;;;5055013;28;20045;-77
2022/07/26 09:12:11;;;;;;;11.45;5.78;;;;;;;;;;5054706;28;20049;-77
2022/07/26 09:14:58;;;;;;;12.57;5.90;;;;;;;;;;5054925;28;20045;-78
2022/07/26 09:17:45;;;;;;;9.80;5.97;;;;;;;;;;5060659;28;20053;-78
2022/07/26 09:20:31;;;;;;;9.50;5.40;;;;;;;;;;5060608;28;20044;-79
2022/07/26 09:23:16;;;;;;;10.95;6.30;;;;;;;;;;5079478;28;20044;-79
2022/07/26 09:26:03;;;;;;;11.82;5.90;;;;;;;;;;5060026;28;20041;-77
2022/07/26 09:29:18;;;;;;;9.13;6.25;;;;;;;;;;5053644;28;20048;-78
2022/07/26 09:32:10;;;;;;;6.68;5.95;;;;;;;;;;5053515;28;20045;-79
2022/07/26 09:35:17;;;;;;;8.80;5.65;;;;;;;;;;5053984;28;20057;-79
2022/07/26 09:38:12;;;;;;;11.52;6.03;;;;;;;;;;5054216;28;20052;-76
2022/07/26 09:40:58;;;;;;;9.38;6.50;;;;;;;;;;5053506;28;20041;-77
2022/07/26 09:43:45;;;;;;;7.78;6.10;;;;;;;;;;5053324;28;20049;-78
2022/07/26 09:46:33;;;;;;;8.77;6.22;;;;;;;;;;5053937;28;20041;-76
2022/07/26 09:49:20;;;;;;;6.95;6.25;;;;;;;;;;5053864;28;20040;-78
2022/07/26 09:52:17;;;;;;;8.57;6.30;;;;;;;;;;5060178;28;20040;-80
2022/07/26 09:55:07;;;;;;;12.30;6.38;;;;;;;;;;5053845;28;20379;-79
2022/07/26 09:57:52;;;;;;;7.18;6.22;;;;;;;;;;5053195;28;20494;-76
2022/07/26 10:00:38;;;;;;;8.27;6.45;;;;;;;;;;5059831;28;20049;-77
2022/07/26 10:03:23;;;;;;;9.48;6.53;;;;;;;;;;5053629;28;20045;-79
2022/07/26 10:06:09;;;;;;;7.32;6.32;;;;;;;;;;5060463;28;20037;-79
2022/07/26 10:08:56;;;;;;;8.15;6.40;;;;;;;;;;5053553;28;20045;-79
2022/07/26 10:11:46;;;;;;;9.27;6.03;;;;;;;;;;5059464;28;20396;-79
2022/07/26 10:14:31;;;;;;;9.00;5.95;;;;;;;;;;5060396;28;20045;-80
2022/07/26 10:17:25;;;;;;;11.35;7.10;;;;;;;;;;5053283;28;20053;-80
2022/07/26 10:20:44;;;;;;;8.13;6.95;;;;;;;;;;5053245;28;20041;-80
2022/07/26 10:23:33;;;;;;;7.38;6.15;;;;;;;;;;5059955;28;20490;-79
2022/07/26 10:26:31;;;;;;;7.72;6.43;;;;;;;;;;5045486;28;20045;-80
2022/07/26 10:29:16;;;;;;;9.05;6.38;;;;;;;;;;5053305;28;20057;-80
2022/07/26 10:32:02;;;;;;;7.22;6.05;;;;;;;;;;5053328;28;20041;-79
2022/07/26 10:34:48;;;;;;;8.55;6.20;;;;;;;;;;5053376;28;20398;-79
2022/07/26 10:37:33;;;;;;;8.93;6.13;;;;;;;;;;5060010;28;20041;-79
2022/07/26 10:40:21;;;;;;;9.85;6.55;;;;;;;;;;5059660;28;20045;-79
2022/07/26 10:43:10;;;;;;;7.45;6.43;;;;;;;;;;5053089;28;20053;-78
2022/07/26 10:46:17;;;;;;;11.02;6.38;;;;;;;;;;5053056;28;20136;-78
2022/07/26 10:49:07;;;;;;;10.38;6.05;;;;;;;;;;5050725;28;20037;-79
2022/07/26 10:52:12;;;;;;;7.90;6.03;;;;;;;;;;5052580;28;20041;-79
2022/07/26 10:54:57;;;;;;;10.00;6.22;;;;;;;;;;5052964;28;20474;-81
2022/07/26 10:57:44;;;;;;;6.00;5.40;;;;;;;;;;5053151;28;20045;-80
2022/07/26 11:00:30;;;;;;;6.38;5.50;;;;;;;;;;5060240;28;20041;-82
2022/07/26 11:03:15;;;;;;;12.10;6.05;;;;;;;;;;5053309;28;20044;-79
2022/07/26 11:06:21;;;;;;;10.90;5.78;;;;;;;;;;5052693;28;20049;-80
2022/07/26 11:09:11;;;;;;;6.85;5.35;;;;;;;;;;5060066;28;20474;-79
2022/07/26 11:12:14;;;;;;;6.95;5.60;;;;;;;;;;5052211;28;20053;-79
2022/07/26 11:15:13;;;;;;;6.28;5.43;;;;;;;;;;5059004;28;20052;-80
2022/07/26 11:18:14;;;;;;;5.72;5.13;;;;;;;;;;5057337;28;20049;-80
2022/07/26 11:21:16;;;;;;;6.30;5.70;;;;;;;;;;5050654;28;20045;-80
2022/07/26 11:24:04;;;;;;;9.60;5.18;;;;;;;;;;5054422;28;20053;-79
2022/07/26 11:26:50;;;;;;;9.27;5.57;;;;;;;;;;5061567;28;20406;-79
2022/07/26 11:29:36;;;;;;;6.85;4.97;;;;;;;;;;5056838;28;20486;-79
2022/07/26 11:32:24;;;;;;;7.97;5.45;;;;;;;;;;5057026;28;20144;-80
2022/07/26 11:35:08;;;;;;;5.28;4.50;;;;;;;;;;5056346;28;20498;-80
2022/07/26 11:37:55;;;;;;;8.90;5.55;;;;;;;;;;5063042;28;20037;-80
2022/07/26 11:40:46;;;;;;;7.68;5.20;;;;;;;;;;5071613;28;20044;-80
2022/07/26 11:43:40;;;;;;;7.18;4.85;;;;;;;;;;5068992;28;20422;-80
2022/07/26 11:46:37;;;;;;;9.18;5.47;;;;;;;;;;5056319;28;20053;-79
2022/07/26 11:49:25;;;;;;;10.15;5.07;;;;;;;;;;5062720;28;20053;-81
2022/07/26 11:52:11;;;;;;;6.40;4.38;;;;;;;;;;5057732;28;20045;-80
2022/07/26 11:54:56;;;;;;;9.98;4.45;;;;;;;;;;5056087;28;20502;-80
2022/07/26 11:57:42;;;;;;;6.47;4.88;;;;;;;;;;5062639;28;20040;-80
2022/07/26 12:00:28;;;;;;;7.15;5.13;;;;;;;;;;5056210;28;20044;-80
2022/07/26 12:03:14;;;;;;;5.82;4.47;;;;;;;;;;5056138;28;20033;-79
2022/07/26 12:06:06;;;;;;;7.35;4.35;;;;;;;;;;5055786;28;20037;-79
2022/07/26 12:08:56;;;;;;;6.28;4.55;;;;;;;;;;5061901;28;20390;-79
2022/07/26 12:11:46;;;;;;;5.60;3.92;;;;;;;;;;5055497;28;20041;-82
2022/07/26 12:14:35;;;;;;;9.82;4.10;;;;;;;;;;5055193;28;20049;-80
2022/07/26 12:17:20;;;;;;;6.72;3.83;;;;;;;;;;5055351;28;20045;-81
2022/07/26 12:20:14;;;;;;;8.00;4.05;;;;;;;;;;5046988;28;20049;-79
2022/07/26 12:23:03;;;;;;;6.10;4.30;;;;;;;;;;5055249;28;20045;-81
2022/07/26 12:25:49;;;;;;;9.18;4.10;;;;;;;;;;5055626;28;20045;-79
2022/07/26 12:28:41;;;;;;;7.53;4.60;;;;;;;;;;5061792;28;20048;-81
2022/07/26 12:31:30;;;;;;;12.25;4.40;;;;;;;;;;5055400;28;20045;-81
2022/07/26 12:34:20;;;;;;;7.55;4.03;;;;;;;;;;5054898;28;20041;-80
2022/07/26 12:37:16;;;;;;;6.30;4.28;;;;;;;;;;5055004;28;20041;-81
2022/07/26 12:40:08;;;;;;;8.32;4.30;;;;;;;;;;5054263;28;20045;-80
2022/07/26 12:42:58;;;;;;;4.95;4.10;;;;;;;;;;5060686;28;20053;-80
2022/07/26 12:45:44;;;;;;;9.38;4.28;;;;;;;;;;5054744;28;20394;-78
2022/07/26 12:48:29;;;;;;;7.15;4.18;;;;;;;;;;5054233;28;20497;-79
2022/07/26 12:51:15;;;;;;;11.40;4.55;;;;;;;;;;5053147;28;20402;-79
2022/07/26 12:54:02;;;;;;;8.32;4.68;;;;;;;;;;5052659;28;20041;-79
2022/07/26 12:56:47;;;;;;;9.23;4.32;;;;;;;;;;5054430;28;20045;-80
2022/07/26 12:59:33;;;;;;;5.88;3.97;;;;;;;;;;5058521;28;20390;-77
2022/07/26 13:02:20;;;;;;;4.93;3.95;;;;;;;;;;5058774;28;20048;-79
2022/07/26 13:05:06;;;;;;;4.28;3.88;;;;;;;;;;5064287;28;20037;-81
2022/07/26 13:07:53;;;;;;;4.93;3.88;;;;;;;;;;5064080;28;20041;-78
2022/07/26 13:10:40;;;;;;;7.88;3.70;;;;;;;;;;5064810;28;20049;-79
2022/07/26 13:13:25;;;;;;;6.10;3.45;;;;;;;;;;5056898;28;20045;-79
2022/07/26 13:16:11;;;;;;;6.15;4.07;;;;;;;;;;5057837;28;20048;-82
2022/07/26 13:18:57;;;;;;;8.50;3.75;;;;;;;;;;5050202;28;20041;-79
2022/07/26 13:21:43;;;;;;;7.47;3.90;;;;;;;;;;5054008;28;20049;-77
2022/07/26 13:24:30;;;;;;;5.72;3.78;;;;;;;;;;5053485;28;20478;-78
2022/07/26 13:27:14;;;;;;;5.63;3.72;;;;;;;;;;5052242;28;20037;-77
2022/07/26 13:30:00;;;;;;;6.85;3.58;;;;;;;;;;5039123;28;20053;-79
2022/07/26 13:32:46;;;;;;;4.30;3.28;;;;;;;;;;5060245;28;20040;-78
2022/07/26 13:35:31;;;;;;;4.97;3.85;;;;;;;;;;5053284;28;20052;-81
2022/07/26 13:38:18;;;;;;;8.27;4.20;;;;;;;;;;5053982;28;20044;-79
2022/07/26 13:41:04;;;;;;;4.85;3.78;;;;;;;;;;5053505;28;20041;-78
2022/07/26 13:43:50;;;;;;;5.80;3.60;;;;;;;;;;5053782;28;20466;-79
2022/07/26 13:46:36;;;;;;;5.43;3.67;;;;;;;;;;5053874;28;20045;-80
2022/07/26 13:49:22;;;;;;;3.85;3.45;;;;;;;;;;5060558;28;20045;-80
2022/07/26 13:52:07;;;;;;;4.47;3.40;;;;;;;;;;5060642;28;20402;-80
2022/07/26 13:54:52;;;;;;;4.70;3.58;;;;;;;;;;5053386;28;20041;-78
2022/07/26 13:57:38;;;;;;;6.70;3.67;;;;;;;;;;5063694;28;20045;-77
2022/07/26 14:00:28;;;;;;;5.43;3.35;;;;;;;;;;5073672;28;20041;-77
2022/07/26 14:03:14;;;;;;;4.55;3.83;;;;;;;;;;5053153;28;20040;-78
2022/07/26 14:05:59;;;;;;;5.15;3.60;;;;;;;;;;5060531;28;20045;-78
2022/07/26 14:08:44;;;;;;;5.38;3.30;;;;;;;;;;5053177;28;20053;-77
2022/07/26 14:11:30;;;;;;;6.45;3.70;;;;;;;;;;5053330;28;20049;-77
2022/07/26 14:14:16;;;;;;;4.03;3.60;;;;;;;;;;5053354;28;20045;-79
2022/07/26 14:17:01;;;;;;;5.95;3.38;;;;;;;;;;5052942;28;20059;-78
2022/07/26 14:19:47;;;;;;;3.90;3.45;;;;;;;;;;5053447;28;20045;-80
2022/07/26 14:22:32;;;;;;;6.57;3.50;;;;;;;;;;5059880;28;20052;-80
2022/07/26 14:25:19;;;;;;;6.15;3.22;;;;;;;;;;5053158;28;20045;-78
2022/07/26 14:28:05;;;;;;;4.15;3.70;;;;;;;;;;5059969;28;20053;-80
2022/07/26 14:30:50;;;;;;;3.72;3.30;;;;;;;;;;5053035;28;20041;-80
2022/07/26 14:33:36;;;;;;;4.40;3.30;;;;;;;;;;5053280;28;20049;-79
2022/07/26 14:36:21;;;;;;;4.18;3.72;;;;;;;;;;5060080;28;20041;-80
2022/07/26 14:39:07;;;;;;;5.85;3.72;;;;;;;;;;5053115;28;20490;-79
2022/07/26 14:41:54;;;;;;;6.03;4.10;;;;;;;;;;5053006;28;20052;-79
2022/07/26 14:44:39;;;;;;;4.70;4.00;;;;;;;;;;5053865;28;20041;-79
2022/07/26 14:47:24;;;;;;;9.82;4.00;;;;;;;;;;5052562;28;20394;-80
2022/07/26 14:50:12;;;;;;;9.55;4.57;;;;;;;;;;5059441;28;20037;-80
2022/07/26 14:52:58;;;;;;;9.63;4.03;;;;;;;;;;5052473;28;20040;-80
2022/07/26 14:55:44;;;;;;;5.20;3.30;;;;;;;;;;5053326;28;20040;-80
2022/07/26 14:58:29;;;;;;;3.97;3.20;;;;;;;;;;5063728;28;20408;-78
2022/07/26 15:01:15;;;;;;;5.60;3.45;;;;;;;;;;5048253;28;20421;-78
2022/07/26 15:04:00;;;;;;;5.68;3.53;;;;;;;;;;5063776;28;20037;-80
2022/07/26 15:06:45;;;;;;;6.47;3.80;;;;;;;;;;5056269;28;20049;-77
2022/07/26 15:09:30;;;;;;;3.97;3.10;;;;;;;;;;5056609;28;20049;-79
2022/07/26 15:12:16;;;;;;;3.58;3.25;;;;;;;;;;5062946;28;20398;-82
2022/07/26 15:15:02;;;;;;;4.88;3.72;;;;;;;;;;5063250;28;20045;-78
2022/07/26 15:17:47;;;;;;;6.20;3.50;;;;;;;;;;5056456;28;20454;-79
2022/07/26 15:20:33;;;;;;;4.53;3.67;;;;;;;;;;5056290;28;20036;-77
2022/07/26 15:23:18;;;;;;;5.60;3.70;;;;;;;;;;5056296;28;20053;-78
2022/07/26 15:26:04;;;;;;;4.80;3.47;;;;;;;;;;5062960;28;20045;-77
2022/07/26 15:28:49;;;;;;;4.30;3.50;;;;;;;;;;5056402;28;20041;-77
2022/07/26 15:31:35;;;;;;;6.63;3.90;;;;;;;;;;5063625;28;20053;-79
2022/07/26 15:34:20;;;;;;;4.65;3.22;;;;;;;;;;5056702;28;20394;-83
2022/07/26 15:37:08;;;;;;;8.20;3.63;;;;;;;;;;5056517;28;20033;-80
2022/07/26 15:39:54;;;;;;;4.47;3.50;;;;;;;;;;5056368;28;20053;-80
2022/07/26 15:42:42;;;;;;;11.02;4.00;;;;;;;;;;5056396;28;20410;-82
2022/07/26 15:45:28;;;;;;;5.13;3.85;;;;;;;;;;5000689;28;20056;-79
2022/07/26 15:48:14;;;;;;;7.55;4.00;;;;;;;;;;5035596;28;20050;-79
2022/07/26 15:51:00;;;;;;;6.50;4.25;;;;;;;;;;5036008;28;20049;-79
2022/07/26 15:53:46;;;;;;;10.70;4.22;;;;;;;;;;5035345;28;20045;-78
2022/07/26 15:56:31;;;;;;;8.57;4.80;;;;;;;;;;5035378;28;20402;-81
2022/07/26 15:59:17;;;;;;;5.88;4.28;;;;;;;;;;5042292;28;20049;-79
2022/07/26 16:02:06;;;;;;;8.80;4.03;;;;;;;;;;5042143;28;20046;-79
2022/07/26 16:04:52;;;;;;;8.65;4.22;;;;;;;;;;5035577;28;20482;-80
2022/07/26 16:07:40;;;;;;;5.47;4.30;;;;;;;;;;5034731;28;20057;-78
2022/07/26 16:10:25;;;;;;;8.77;4.28;;;;;;;;;;5035421;28;20037;-78
2022/07/26 16:13:11;;;;;;;5.65;3.90;;;;;;;;;;5035337;28;20045;-79
2022/07/26 16:15:56;;;;;;;14.80;4.20;;;;;;;;;;5037547;28;20038;-78
2022/07/26 16:18:42;;;;;;;9.95;3.72;;;;;;;;;;5061855;28;20037;-79
2022/07/26 16:21:27;;;;;;;4.65;3.30;;;;;;;;;;5041711;28;20049;-79
2022/07/26 16:24:13;;;;;;;4.72;3.58;;;;;;;;;;5042361;28;20046;-79
2022/07/26 16:26:59;;;;;;;8.32;4.18;;;;;;;;;;5020485;28;20045;-79
2022/07/26 16:29:44;;;;;;;10.48;4.07;;;;;;;;;;5035743;28;20041;-79
2022/07/26 16:32:30;;;;;;;12.35;3.85;;;;;;;;;;5041525;28;20041;-78
2022/07/26 16:35:15;;;;;;;5.68;3.10;;;;;;;;;;5041992;28;20490;-79
2022/07/26 16:38:04;;;;;;;9.90;3.55;;;;;;;;;;5042631;28;20049;-79
2022/07/26 16:40:48;;;;;;;6.43;3.40;;;;;;;;;;5035855;28;20042;-81